createdAt,value
2019-04-14T00:02:12.663Z,23.75
2019-04-14T00:04:46.900Z,25.60
2019-04-14T00:07:17.278Z,25.97
2019-04-14T00:09:47.694Z,24.32
2019-04-14T00:12:18.764Z,25.12
2019-04-14T00:14:49.241Z,26.73
2019-04-14T00:17:19.587Z,27.13
2019-04-14T00:19:50.233Z,24.60
2019-04-14T00:22:20.851Z,27.22
2019-04-14T00:24:51.238Z,23.30
2019-04-14T00:27:21.645Z,23.87
2019-04-14T00:29:52.473Z,25.85
2019-04-14T00:32:23.215Z,25.23
2019-04-14T00:35:16.644Z,26.27
2019-04-14T00:38:09.083Z,24.80
2019-04-14T00:40:45.428Z,26.23
2019-04-14T00:43:50.617Z,24.10
2019-04-14T00:46:40.981Z,24.05
2019-04-14T00:49:11.609Z,27.75
2019-04-14T00:51:42.430Z,23.47
2019-04-14T00:54:13.248Z,24.30
2019-04-14T00:56:43.696Z,25.00
2019-04-14T00:59:14.037Z,41.08
2019-04-14T01:01:44.409Z,27.62
2019-04-14T01:04:14.782Z,24.30
2019-04-14T01:06:45.161Z,24.15
2019-04-14T01:09:15.745Z,23.92
2019-04-14T01:11:46.513Z,22.75
2019-04-14T01:14:17.005Z,26.33
2019-04-14T01:16:47.419Z,21.73
2019-04-14T01:19:17.831Z,21.62
2019-04-14T01:21:48.222Z,22.48
2019-04-14T01:24:18.639Z,21.77
2019-04-14T01:26:49.097Z,20.95
2019-04-14T01:29:19.499Z,21.00
2019-04-14T01:31:49.883Z,22.65
2019-04-14T01:34:21.580Z,20.45
2019-04-14T01:36:52.090Z,21.25
2019-04-14T01:39:22.572Z,20.72
2019-04-14T01:41:54.218Z,21.17
2019-04-14T01:44:24.802Z,22.42
2019-04-14T01:46:56.502Z,21.70
2019-04-14T01:49:27.262Z,21.60
2019-04-14T01:52:16.676Z,23.30
2019-04-14T01:55:15.439Z,22.73
2019-04-14T01:57:56.867Z,22.50
2019-04-14T02:00:53.088Z,23.77
2019-04-14T02:03:23.903Z,23.40
2019-04-14T02:05:54.325Z,22.98
2019-04-14T02:08:24.706Z,22.73
2019-04-14T02:10:55.054Z,21.60
2019-04-14T02:13:26.720Z,22.70
2019-04-14T02:15:57.387Z,23.27
2019-04-14T02:18:27.840Z,23.02
2019-04-14T02:20:58.255Z,20.70
2019-04-14T02:23:30.091Z,23.02
2019-04-14T02:26:00.669Z,20.35
2019-04-14T02:28:31.065Z,21.37
2019-04-14T02:31:13.211Z,21.15
2019-04-14T02:34:21.618Z,22.98
2019-04-14T02:36:30.763Z,22.70
2019-04-14T02:39:22.282Z,21.65
2019-04-14T02:41:43.576Z,23.80
2019-04-14T02:46:46.008Z,21.30
2019-04-14T02:49:12.474Z,22.58
2019-04-14T02:54:23.330Z,22.30
2019-04-14T02:56:59.018Z,20.45
2019-04-14T02:59:22.857Z,20.27
2019-04-14T03:02:10.022Z,20.08
2019-04-14T03:04:25.912Z,20.75
2019-04-14T03:06:55.104Z,20.52
2019-04-14T03:12:01.662Z,21.82
2019-04-14T03:14:40.389Z,20.50
2019-04-14T03:17:30.139Z,21.15
2019-04-14T03:20:30.163Z,22.30
2019-04-14T03:22:56.185Z,21.70
2019-04-14T03:25:59.227Z,21.42
2019-04-14T03:28:46.066Z,21.73
2019-04-14T03:38:53.167Z,24.60
2019-04-14T03:43:49.996Z,23.40
2019-04-14T03:46:27.451Z,21.82
2019-04-14T03:57:02.242Z,24.15
2019-04-14T03:59:32.602Z,24.15
2019-04-14T04:02:03.220Z,23.85
2019-04-14T04:04:33.854Z,23.60
2019-04-14T04:07:04.228Z,27.75
2019-04-14T04:09:53.989Z,25.17
2019-04-14T04:12:24.710Z,25.70
2019-04-14T04:14:55.304Z,25.68
2019-04-14T04:17:47.805Z,27.58
2019-04-14T04:20:32.831Z,26.00
2019-04-14T04:23:38.151Z,26.15
2019-04-14T04:26:16.934Z,28.35
2019-04-14T04:29:12.152Z,26.82
2019-04-14T04:32:05.683Z,24.70
2019-04-14T04:34:55.610Z,26.15
2019-04-14T04:37:34.397Z,26.33
2019-04-14T04:40:11.388Z,27.93
2019-04-14T04:42:41.993Z,27.40
2019-04-14T04:45:12.743Z,29.77
2019-04-14T04:47:43.245Z,28.15
2019-04-14T04:50:13.609Z,28.70
2019-04-14T04:52:45.031Z,27.22
2019-04-14T04:55:15.655Z,25.75
2019-04-14T04:57:46.091Z,28.47
2019-04-14T05:00:17.790Z,26.77
2019-04-14T05:02:48.499Z,28.62
2019-04-14T05:05:55.738Z,24.87
2019-04-14T05:08:26.334Z,25.35
2019-04-14T05:11:03.192Z,27.40
2019-04-14T05:13:38.490Z,28.47
2019-04-14T05:16:10.630Z,28.10
2019-04-14T05:18:41.914Z,25.77
2019-04-14T05:21:23.989Z,28.47
2019-04-14T05:23:54.365Z,27.52
2019-04-14T05:26:24.755Z,28.83
2019-04-14T05:28:55.205Z,26.73
2019-04-14T05:31:27.784Z,27.20
2019-04-14T05:33:57.762Z,28.62
2019-04-14T05:36:28.237Z,27.30
2019-04-14T05:38:58.606Z,27.70
2019-04-14T05:41:29.014Z,30.12
2019-04-14T05:44:01.574Z,28.07
2019-04-14T05:46:31.689Z,27.20
2019-04-14T05:49:02.302Z,29.10
2019-04-14T05:51:33.145Z,29.23
2019-04-14T05:54:03.543Z,28.45
2019-04-14T05:56:36.060Z,28.30
2019-04-14T05:59:06.743Z,27.40
2019-04-14T06:01:37.157Z,26.77
2019-04-14T06:04:07.555Z,26.42
2019-04-14T06:06:37.953Z,27.35
2019-04-14T06:09:08.714Z,26.62
2019-04-14T06:11:39.163Z,28.95
2019-04-14T06:14:09.523Z,27.30
2019-04-14T06:16:39.926Z,28.00
2019-04-14T06:19:10.274Z,25.50
2019-04-14T06:21:40.878Z,26.50
2019-04-14T06:24:11.381Z,26.42
2019-04-14T06:26:41.817Z,27.00
2019-04-14T06:29:12.249Z,25.85
2019-04-14T06:32:00.416Z,27.73
2019-04-14T06:34:55.601Z,26.05
2019-04-14T06:37:38.554Z,26.82
2019-04-14T06:40:09.033Z,26.65
2019-04-14T06:42:39.426Z,29.48
2019-04-14T06:45:11.266Z,29.40
2019-04-14T06:47:41.662Z,26.52
2019-04-14T06:50:12.017Z,27.52
2019-04-14T06:52:42.460Z,26.48
2019-04-14T06:55:13.044Z,24.00
2019-04-14T06:57:43.402Z,25.45
2019-04-14T07:00:13.861Z,37.45
2019-04-14T07:02:45.501Z,27.75
2019-04-14T07:05:16.386Z,24.98
2019-04-14T07:07:57.044Z,23.62
2019-04-14T07:10:20.955Z,25.55
2019-04-14T07:12:51.357Z,26.10
2019-04-14T07:15:21.767Z,24.40
2019-04-14T07:17:52.138Z,24.18
2019-04-14T07:20:22.503Z,24.37
2019-04-14T07:22:52.896Z,23.45
2019-04-14T07:25:23.354Z,22.20
2019-04-14T07:27:53.736Z,23.42
2019-04-14T07:30:49.125Z,24.90
2019-04-14T07:33:38.446Z,23.38
2019-04-14T07:36:22.421Z,23.95
2019-04-14T07:39:17.814Z,25.40
2019-04-14T07:42:13.041Z,26.10
2019-04-14T07:45:02.393Z,25.68
2019-04-14T07:47:47.125Z,26.12
2019-04-14T07:50:51.533Z,27.22
2019-04-14T07:53:34.922Z,26.52
2019-04-14T07:56:20.604Z,27.17
2019-04-14T07:59:16.079Z,26.05
2019-04-14T08:01:52.759Z,28.32
2019-04-14T08:04:28.933Z,27.13
2019-04-14T08:07:00.173Z,27.58
2019-04-14T08:09:30.636Z,27.45
2019-04-14T08:12:01.096Z,27.77
2019-04-14T08:14:31.525Z,26.87
2019-04-14T08:17:01.948Z,27.07
2019-04-14T08:19:32.373Z,28.52
2019-04-14T08:22:02.760Z,28.55
2019-04-14T08:24:33.256Z,27.80
2019-04-14T08:27:03.673Z,26.10
2019-04-14T08:29:34.065Z,25.50
2019-04-14T08:32:04.432Z,28.67
2019-04-14T08:34:34.839Z,26.62
2019-04-14T08:37:05.224Z,28.10
2019-04-14T08:39:35.870Z,29.52
2019-04-14T08:42:31.235Z,27.25
2019-04-14T08:45:08.942Z,27.25
2019-04-14T08:47:49.525Z,25.68
2019-04-14T08:50:40.757Z,27.62
2019-04-14T08:53:30.073Z,27.35
2019-04-14T08:56:09.662Z,26.60
2019-04-14T08:59:11.105Z,28.02
2019-04-14T09:02:00.468Z,25.70
2019-04-14T09:05:08.190Z,27.98
2019-04-14T09:07:44.145Z,26.07
2019-04-14T09:10:17.534Z,26.70
2019-04-14T09:12:49.306Z,27.87
2019-04-14T09:15:22.163Z,24.67
2019-04-14T09:17:52.548Z,27.13
2019-04-14T09:20:22.958Z,27.50
2019-04-14T09:22:53.373Z,27.77
2019-04-14T09:25:23.871Z,25.60
2019-04-14T09:27:54.333Z,24.77
2019-04-14T09:30:24.774Z,25.52
2019-04-14T09:32:55.270Z,26.48
2019-04-14T09:35:25.733Z,25.37
2019-04-14T09:37:56.153Z,27.42
2019-04-14T09:40:26.585Z,28.60
2019-04-14T09:42:57.778Z,26.70
2019-04-14T09:45:28.362Z,25.45
2019-04-14T09:47:58.802Z,27.35
2019-04-14T09:50:29.242Z,27.67
2019-04-14T09:52:59.714Z,26.30
2019-04-14T09:55:30.090Z,25.32
2019-04-14T09:58:00.523Z,27.62
2019-04-14T10:00:32.685Z,26.55
2019-04-14T10:03:03.181Z,26.12
2019-04-14T10:05:33.606Z,26.20
2019-04-14T10:08:04.091Z,26.93
2019-04-14T10:10:34.538Z,25.72
2019-04-14T10:13:05.092Z,27.45
2019-04-14T10:15:35.574Z,29.52
2019-04-14T10:18:05.989Z,25.65
2019-04-14T10:20:36.401Z,26.85
2019-04-14T10:23:06.806Z,26.90
2019-04-14T10:25:37.238Z,28.27
2019-04-14T10:28:07.681Z,27.98
2019-04-14T10:30:38.082Z,27.58
2019-04-14T10:33:08.527Z,26.87
2019-04-14T10:35:38.969Z,26.85
2019-04-14T10:38:09.401Z,25.25
2019-04-14T10:40:39.846Z,28.30
2019-04-14T10:43:10.237Z,25.43
2019-04-14T10:45:40.651Z,26.17
2019-04-14T10:48:11.039Z,26.07
2019-04-14T10:50:41.484Z,26.40
2019-04-14T10:53:14.641Z,26.05
2019-04-14T10:55:45.071Z,25.23
2019-04-14T10:58:15.454Z,26.82
2019-04-14T11:00:45.850Z,26.62
2019-04-14T11:03:16.209Z,26.20
2019-04-14T11:06:06.981Z,27.52
2019-04-14T11:08:37.377Z,25.77
2019-04-14T11:11:07.785Z,26.42
2019-04-14T11:13:38.148Z,25.48
2019-04-14T11:16:08.556Z,24.98
2019-04-14T11:18:38.967Z,26.30
2019-04-14T11:21:09.376Z,26.48
2019-04-14T11:23:39.762Z,24.52
2019-04-14T11:26:10.178Z,26.40
2019-04-14T11:28:41.926Z,27.90
2019-04-14T11:31:13.433Z,26.93
2019-04-14T11:34:00.552Z,25.72
2019-04-14T11:36:52.797Z,26.75
2019-04-14T11:39:23.457Z,25.75
2019-04-14T11:41:53.923Z,26.50
2019-04-14T11:44:24.425Z,25.40
2019-04-14T11:46:54.931Z,26.30
2019-04-14T11:49:25.376Z,27.62
2019-04-14T11:51:55.935Z,26.48
2019-04-14T11:54:26.389Z,25.90
2019-04-14T11:56:56.811Z,25.60
2019-04-14T11:59:38.118Z,23.85
2019-04-14T12:02:22.860Z,25.60
2019-04-14T12:05:06.462Z,24.37
2019-04-14T12:07:58.651Z,22.48
2019-04-14T12:10:30.774Z,24.95
2019-04-14T12:13:01.277Z,23.40
2019-04-14T12:15:34.393Z,23.15
2019-04-14T12:18:03.852Z,24.37
2019-04-14T12:20:34.387Z,23.67
2019-04-14T12:23:04.810Z,24.13
2019-04-14T12:25:35.223Z,25.68
2019-04-14T12:28:06.884Z,25.75
2019-04-14T12:30:37.757Z,26.62
2019-04-14T12:33:08.477Z,25.48
2019-04-14T12:35:38.929Z,27.30
2019-04-14T12:38:09.384Z,24.90
2019-04-14T12:40:40.243Z,24.80
2019-04-14T12:43:41.826Z,25.50
2019-04-14T12:46:31.200Z,24.47
2019-04-14T12:49:09.386Z,23.90
2019-04-14T12:51:45.350Z,26.25
2019-04-14T12:54:15.810Z,25.57
2019-04-14T12:56:46.247Z,24.87
2019-04-14T12:59:23.114Z,25.02
2019-04-14T13:02:06.149Z,23.83
2019-04-14T13:04:36.586Z,25.13
2019-04-14T13:07:07.013Z,25.55
2019-04-14T13:09:37.453Z,25.62
2019-04-14T13:12:10.159Z,24.63
2019-04-14T13:14:40.020Z,25.35
2019-04-14T13:17:10.480Z,25.88
2019-04-14T13:19:40.939Z,23.85
2019-04-14T13:22:11.327Z,23.52
2019-04-14T13:24:41.849Z,24.23
2019-04-14T13:27:12.257Z,24.80
2019-04-14T13:29:42.683Z,25.05
2019-04-14T13:32:13.126Z,32.45
2019-04-14T13:34:43.579Z,25.62
2019-04-14T13:37:14.034Z,22.80
2019-04-14T13:39:44.572Z,22.60
2019-04-14T13:42:14.973Z,21.30
2019-04-14T13:44:45.431Z,21.27
2019-04-14T13:47:15.843Z,20.48
2019-04-14T13:49:46.313Z,20.90
2019-04-14T13:52:16.784Z,19.30
2019-04-14T13:54:47.310Z,19.62
2019-04-14T13:57:17.735Z,18.25
2019-04-14T13:59:48.224Z,17.10
2019-04-14T14:02:18.676Z,17.92
2019-04-14T14:04:49.134Z,17.23
2019-04-14T14:07:19.700Z,15.93
2019-04-14T14:09:50.188Z,15.00
2019-04-14T14:12:34.611Z,14.83
2019-04-14T14:15:34.646Z,14.73
2019-04-14T14:18:29.778Z,14.18
2019-04-14T14:21:14.912Z,13.88
2019-04-14T14:24:04.369Z,12.53
2019-04-14T14:26:36.095Z,12.07
2019-04-14T14:29:06.503Z,14.05
2019-04-14T14:31:36.948Z,13.33
2019-04-14T14:34:07.369Z,14.20
2019-04-14T14:36:37.831Z,12.67
2019-04-14T14:39:10.293Z,13.53
2019-04-14T14:41:40.746Z,13.10
2019-04-14T14:44:11.139Z,15.37
2019-04-14T14:46:47.834Z,13.50
2019-04-14T14:49:43.327Z,14.90
2019-04-14T14:52:15.420Z,14.63
2019-04-14T14:54:45.862Z,14.00
2019-04-14T14:57:16.309Z,14.68
2019-04-14T14:59:46.884Z,15.50
2019-04-14T15:02:17.420Z,14.50
2019-04-14T15:04:47.827Z,15.00
2019-04-14T15:07:18.290Z,16.62
2019-04-14T15:09:48.708Z,15.87
2019-04-14T15:12:19.144Z,14.43
2019-04-14T15:14:49.566Z,14.75
2019-04-14T15:17:19.999Z,13.13
2019-04-14T15:19:50.402Z,15.43
2019-04-14T15:22:20.814Z,15.48
2019-04-14T15:24:51.265Z,14.90
2019-04-14T15:27:21.752Z,15.08
2019-04-14T15:29:52.220Z,13.53
2019-04-14T15:32:22.650Z,13.50
2019-04-14T15:34:53.055Z,15.23
2019-04-14T15:37:23.532Z,14.83
2019-04-14T15:39:53.953Z,16.25
2019-04-14T15:42:24.475Z,14.95
2019-04-14T15:44:54.860Z,14.23
2019-04-14T15:47:25.303Z,15.68
2019-04-14T15:49:55.730Z,15.07
2019-04-14T15:52:26.210Z,15.32
2019-04-14T15:54:56.619Z,14.85
2019-04-14T15:57:31.590Z,13.50
2019-04-14T16:00:19.966Z,14.05
2019-04-14T16:03:09.362Z,14.63
2019-04-14T16:05:59.489Z,13.60
2019-04-14T16:08:33.850Z,15.90
2019-04-14T16:11:14.353Z,14.85
2019-04-14T16:13:59.538Z,13.70
2019-04-14T16:16:48.901Z,14.00
2019-04-14T16:19:32.170Z,14.73
2019-04-14T16:22:02.658Z,13.50
2019-04-14T16:24:33.145Z,13.53
2019-04-14T16:27:25.610Z,12.13
2019-04-14T16:30:15.003Z,13.98
2019-04-14T16:33:04.448Z,15.23
2019-04-14T16:35:34.899Z,15.15
2019-04-14T16:38:05.450Z,13.22
2019-04-14T16:40:36.804Z,14.85
2019-04-14T16:43:07.282Z,15.58
2019-04-14T16:45:37.755Z,14.60
2019-04-14T16:48:08.213Z,14.65
2019-04-14T16:50:38.645Z,13.90
2019-04-14T16:53:16.497Z,13.58
2019-04-14T16:56:14.807Z,14.83
2019-04-14T16:58:54.043Z,13.50
2019-04-14T17:01:39.129Z,12.25
2019-04-14T17:04:09.557Z,14.13
2019-04-14T17:06:40.027Z,13.75
2019-04-14T17:09:10.688Z,14.25
2019-04-14T17:11:41.130Z,13.32
2019-04-14T17:14:32.040Z,12.05
2019-04-14T17:17:09.834Z,11.90
2019-04-14T17:19:51.779Z,12.18
2019-04-14T17:22:28.334Z,12.28
2019-04-14T17:25:03.904Z,12.23
2019-04-14T17:27:39.539Z,12.75
2019-04-14T17:30:18.679Z,12.65
2019-04-14T17:33:26.178Z,11.25
2019-04-14T17:36:24.634Z,10.98
2019-04-14T17:39:18.570Z,12.37
2019-04-14T17:42:04.192Z,12.63
2019-04-14T17:44:40.141Z,11.38
2019-04-14T17:47:44.689Z,11.15
2019-04-14T17:50:52.493Z,12.05
2019-04-14T17:53:30.909Z,11.75
2019-04-14T17:56:23.560Z,11.45
2019-04-14T17:59:15.754Z,10.95
2019-04-14T18:02:17.210Z,11.83
2019-04-14T18:05:12.465Z,11.03
2019-04-14T18:07:55.423Z,11.73
2019-04-14T18:10:40.069Z,11.25
2019-04-14T18:13:33.514Z,10.95
2019-04-14T18:16:24.113Z,11.78
2019-04-14T18:19:13.445Z,11.35
2019-04-14T18:21:44.387Z,10.78
2019-04-14T18:24:14.989Z,11.97
2019-04-14T18:26:45.405Z,11.57
2019-04-14T18:29:27.679Z,12.10
2019-04-14T18:32:12.045Z,11.48
2019-04-14T18:35:04.321Z,11.38
2019-04-14T18:37:41.463Z,12.20
2019-04-14T18:40:39.969Z,19.80
2019-04-14T18:43:28.283Z,14.45
2019-04-14T18:46:07.418Z,12.50
2019-04-14T18:48:59.589Z,11.73
2019-04-14T18:51:48.958Z,12.10
2019-04-14T18:54:54.693Z,11.90
2019-04-14T18:57:27.749Z,11.15
2019-04-14T19:00:19.634Z,10.90
2019-04-14T19:02:50.205Z,10.85
2019-04-14T19:05:21.007Z,11.10
2019-04-14T19:07:51.869Z,10.65
2019-04-14T19:10:22.593Z,13.78
2019-04-14T19:12:58.408Z,15.53
2019-04-14T19:15:36.464Z,15.10
2019-04-14T19:18:25.860Z,11.50
2019-04-14T19:21:03.105Z,12.53
2019-04-14T19:23:33.647Z,11.25
2019-04-14T19:26:04.146Z,12.75
2019-04-14T19:28:34.622Z,11.30
2019-04-14T19:31:05.190Z,11.55
2019-04-14T19:33:35.620Z,12.07
2019-04-14T19:36:06.064Z,13.25
2019-04-14T19:38:36.461Z,12.40
2019-04-14T19:41:08.615Z,13.18
2019-04-14T19:43:38.999Z,13.65
2019-04-14T19:46:09.427Z,12.25
2019-04-14T19:48:39.795Z,13.62
2019-04-14T19:51:10.304Z,12.75
2019-04-14T19:53:40.789Z,13.50
2019-04-14T19:56:11.253Z,12.37
2019-04-14T19:58:41.705Z,11.90
2019-04-14T20:01:12.144Z,13.03
2019-04-14T20:03:42.689Z,12.93
2019-04-14T20:06:13.137Z,12.70
2019-04-14T20:08:43.595Z,13.13
2019-04-14T20:11:14.027Z,14.33
2019-04-14T20:13:46.673Z,14.07
2019-04-14T20:16:34.310Z,13.55
2019-04-14T20:19:33.800Z,15.95
2019-04-14T20:22:29.245Z,16.12
2019-04-14T20:25:17.338Z,15.40
2019-04-14T20:27:52.567Z,15.65
2019-04-14T20:30:33.197Z,16.20
2019-04-14T20:33:03.591Z,15.75
2019-04-14T20:35:34.293Z,14.15
2019-04-14T20:38:04.777Z,12.43
2019-04-14T20:40:35.351Z,12.30
2019-04-14T20:43:05.836Z,11.93
2019-04-14T20:45:36.232Z,12.90
2019-04-14T20:48:06.637Z,14.45
2019-04-14T20:50:37.002Z,12.58
2019-04-14T20:53:07.425Z,13.48
2019-04-14T20:55:46.684Z,12.47
2019-04-14T20:58:10.449Z,13.20
2019-04-14T21:00:40.876Z,13.00
2019-04-14T21:03:31.652Z,13.93
2019-04-14T21:06:17.010Z,13.13
2019-04-14T21:09:12.513Z,12.65
2019-04-14T21:11:52.770Z,11.68
2019-04-14T21:14:35.487Z,12.35
2019-04-14T21:17:27.625Z,12.70
2019-04-14T21:20:32.523Z,12.20
2019-04-14T21:23:24.673Z,11.22
2019-04-14T21:26:02.772Z,12.85
2019-04-14T21:28:52.294Z,12.07
2019-04-14T21:31:41.658Z,13.25
2019-04-14T21:34:39.990Z,12.53
2019-04-14T21:37:29.386Z,11.60
2019-04-14T21:40:18.726Z,12.93
2019-04-14T21:42:49.121Z,13.55
2019-04-14T21:45:19.654Z,12.05
2019-04-14T21:47:50.046Z,13.20
2019-04-14T21:50:20.436Z,15.08
2019-04-14T21:52:50.817Z,14.95
2019-04-14T21:55:21.221Z,15.68
2019-04-14T21:58:11.310Z,16.95
2019-04-14T22:01:52.317Z,15.05
2019-04-14T22:04:48.308Z,14.30
2019-04-14T22:07:40.751Z,14.95
2019-04-14T22:10:39.889Z,14.15
2019-04-14T22:13:10.261Z,12.73
2019-04-14T22:15:40.666Z,12.58
2019-04-14T22:18:11.141Z,12.43
2019-04-14T22:20:41.532Z,11.95
2019-04-14T22:23:13.387Z,12.10
2019-04-14T22:25:43.766Z,14.30
2019-04-14T22:28:14.146Z,13.43
2019-04-14T22:30:44.565Z,11.70
2019-04-14T22:33:15.320Z,12.40
2019-04-14T22:35:45.697Z,10.45
2019-04-14T22:38:16.079Z,10.18
2019-04-14T22:40:46.461Z,10.48
2019-04-14T22:43:16.846Z,10.10
2019-04-14T22:45:47.197Z,10.50
2019-04-14T22:48:17.611Z,9.00
2019-04-14T22:50:47.990Z,9.73
2019-04-14T22:53:18.394Z,10.03
2019-04-14T22:55:48.811Z,10.18
2019-04-14T22:58:19.190Z,10.23
2019-04-14T23:01:02.215Z,10.32
2019-04-14T23:03:56.465Z,9.95
2019-04-14T23:06:44.794Z,9.33
2019-04-14T23:09:26.278Z,9.85
2019-04-14T23:12:09.293Z,11.25
2019-04-14T23:15:07.665Z,10.70
2019-04-14T23:17:45.404Z,11.08
2019-04-14T23:20:19.957Z,10.20
2019-04-14T23:23:06.446Z,10.40
2019-04-14T23:25:38.083Z,10.10
2019-04-14T23:28:08.603Z,10.00
2019-04-14T23:30:39.022Z,9.03
2019-04-14T23:33:09.441Z,11.05
2019-04-14T23:35:39.842Z,9.68
2019-04-14T23:38:10.301Z,11.43
2019-04-14T23:40:40.692Z,12.65
2019-04-14T23:43:11.113Z,12.53
2019-04-14T23:45:41.515Z,11.28
2019-04-14T23:48:11.929Z,11.20
2019-04-14T23:50:42.336Z,12.40
2019-04-14T23:53:12.742Z,10.23
2019-04-14T23:55:43.131Z,11.53
2019-04-14T23:58:13.570Z,10.32
